Key West, FL

15:11 EDT le 24 mai 2015 (GMT -0400)
Dade County-Homestead Regional | | Change Station
CLOSE
Current Station
Aéroport
Location: Homestead AFB,
Altitude: 7 ft
Stations météo à proximité

Alt. 7 ft 25.49 °N, 80.38 °W | Updated 13 minutes ago

Partiellement nuageux
Partiellement nuageux
86 ° F
Paraît 94 ° F
N
17
Vent Variable Vent de Est
Gusts 21 mph

Aujourd'hui
Haut(e) -- | Bas -- ° F
--% Risque de précip.
Hier
Haut(e) -- | Bas -- ° F
Precip. -- pouce
6:39 AM 8:07 PM
Lune montante, 41% visible
Pression 30.14 pouce
Visibilité 10.0 Miles terrestres
Nuages Ciel dégagé
indice de chaleur 94 ° F
Point de rosée 73 ° F
Humidité 65%
Précipitations 0.00 pouce
Profondeur de la couche neigeuse Non disponible.
UV 13 sur 12
Pollen 4.50 sur 12
Qualité de l'air Non disponible.
Flu Activity Sporadic
METAR KHST 241858Z AUTO 08015G18KT 060V130 10SM CLR 30/23 A3013 RMK AO2 SLP206 T03020229

More Conditions Fewer Conditions

Pression 30.14 pouce
Visibilité 10.0 Miles terrestres
Nuages Ciel dégagé
indice de chaleur 94 ° F
Point de rosée 73 ° F
Humidité 65%
Précipitations 0.00 pouce
Profondeur de la couche neigeuse Non disponible.
UV 13 sur 12
Pollen 4.50 sur 12
Qualité de l'air Non disponible.
Flu Activity Sporadic
METAR KHST 241858Z AUTO 08015G18KT 060V130 10SM CLR 30/23 A3013 RMK AO2 SLP206 T03020229

More Conditions Fewer Conditions

10-Day Weather Forecast

Almanac

Astronomie

May. 24, 2015 Lever Coucher
Temps réel
Crépuscule civil
Crépuscule nautique
Crépuscule astronomique
Lune
Durée de lumière visible
Longueur du jour
Tomorrow will be .
, % of the Moon is Illuminated

Extrêmes aujourd'hui

State Highs State Lows

Community

WunderPhotos

Upload Photos

1,823,832 Photos téléchargées !

WunderBlogs® & News

Nearby

Qualité de l'air

  Qualité de l'air Indice de la qualité de l'air Polluant
Not available.

Épaisseur de neige

Station Depth Altitude

Activité sismique

Ville Distance Mag. Time & Date
Minimum magnitude displayed is 2.5.

Températures des eaux côtières

Lieu Température

Stations

Stations météo à proximité

Emplacement de la station Température Refroidissement éolien Point de rosée Humidité Vent Precip. Alt. Mise à jour Type